Timberlake, Ohio
Current Conditions -  °F | °C
As of 1:45 PM on Sunday 23 Nov 2014 (Local Time) from KCGF Reporting Station
Overcast Overcast  
Wind Chill: 57°   Ceiling: 3000
Heat Index: 57°   Visibility: 10mi
Dew Point: 43°   Wind: 14mph
Humidity: 59%   Direction: 170°S
Pressure: 29.88"   Gusts: NA
Location:  41.6454°N, 81.4495°W
Report Text: KCGF 231845Z 17012KT 10SM BKN030 OVC050 14/06 A2988
Loading
Personal Weather Stations






























Interactive Weather Map New forecast layout! Learn more

10-Day Weather Forecast

Advertisements
Track Severe Weather on mobile